Time;durP1;ratioP1;P1;durP2;ratioP2;P2;SDS_P1;SDS_P2;PMS_P1;PMS_P2;Temp;Humidity;BMP_temperature;BMP_pressure;BME280_temperature;BME280_humidity;BME280_pressure;Samples;Min_cycle;Max_cycle;Signal;HPM_P1;HPM_P2
2023/02/28 00:01:15;;;;;;;18.27;6.75;;;-4.60;98.70;;;;;;5010053;28;20046;-78
2023/02/28 00:03:42;;;;;;;16.52;6.63;;;-4.60;99.10;;;;;;5010335;28;20058;-78
2023/02/28 00:06:09;;;;;;;15.95;6.82;;;-4.60;99.20;;;;;;5012314;28;21596;-78
2023/02/28 00:08:37;;;;;;;18.67;6.38;;;-4.60;99.30;;;;;;5011987;28;20490;-78
2023/02/28 00:11:06;;;;;;;25.70;8.05;;;-4.60;98.90;;;;;;5014216;28;20933;-78
2023/02/28 00:13:42;;;;;;;20.75;6.35;;;-4.70;98.90;;;;;;5014844;28;20049;-78
2023/02/28 00:16:11;;;;;;;20.08;6.63;;;-4.70;98.90;;;;;;5011610;28;20129;-77
2023/02/28 00:18:38;;;;;;;17.73;6.25;;;-4.70;99.20;;;;;;5012861;28;20784;-77
2023/02/28 00:21:06;;;;;;;12.23;6.45;;;-4.70;99.30;;;;;;5006167;28;20571;-76
2023/02/28 00:23:34;;;;;;;23.80;6.25;;;-4.80;99.10;;;;;;4999982;28;21324;-75
2023/02/28 00:26:01;;;;;;;23.48;7.05;;;-4.80;99.30;;;;;;5018154;28;21051;-75
2023/02/28 00:28:28;;;;;;;16.70;6.80;;;-4.80;99.20;;;;;;5005395;28;20968;-75
2023/02/28 00:30:55;;;;;;;21.80;6.80;;;-4.80;98.90;;;;;;5016895;28;20050;-76
2023/02/28 00:33:22;;;;;;;22.33;6.78;;;-4.80;99.10;;;;;;5003191;28;20041;-75
2023/02/28 00:35:48;;;;;;;21.77;6.43;;;-4.80;99.10;;;;;;5001025;28;20866;-76
2023/02/28 00:38:16;;;;;;;17.65;6.88;;;-4.80;99.20;;;;;;5002533;28;20164;-75
2023/02/28 00:40:43;;;;;;;23.27;6.32;;;-4.80;99.20;;;;;;5015636;28;20049;-75
2023/02/28 00:43:10;;;;;;;18.77;6.28;;;-4.80;99.00;;;;;;5003659;28;20068;-76
2023/02/28 00:45:39;;;;;;;25.42;8.02;;;-4.90;99.10;;;;;;5000694;28;20050;-76
2023/02/28 00:48:06;;;;;;;17.95;6.95;;;-4.90;99.10;;;;;;5001201;23;20054;-78
2023/02/28 00:50:33;;;;;;;25.38;7.30;;;-4.90;99.70;;;;;;4975292;28;20068;-77
2023/02/28 00:52:59;;;;;;;18.40;7.22;;;-4.90;100.00;;;;;;4976025;28;20053;-77
2023/02/28 00:55:26;;;;;;;25.98;6.90;;;-4.90;100.00;;;;;;4972792;28;20510;-78
2023/02/28 00:57:53;;;;;;;45.88;15.77;;;-4.90;99.90;;;;;;4990103;28;20058;-78
2023/02/28 01:00:20;;;;;;;38.83;12.10;;;-4.90;99.70;;;;;;4977836;28;20189;-77
2023/02/28 01:02:47;;;;;;;32.92;10.93;;;-4.90;99.80;;;;;;4985619;28;20054;-78
2023/02/28 01:05:14;;;;;;;23.88;8.60;;;-4.90;100.00;;;;;;4986235;28;20054;-77
2023/02/28 01:07:40;;;;;;;21.65;8.10;;;-5.00;99.50;;;;;;4988097;28;20495;-77
2023/02/28 01:10:08;;;;;;;20.10;7.80;;;-5.00;99.70;;;;;;4983708;28;20042;-77
2023/02/28 01:12:35;;;;;;;21.30;7.93;;;-5.10;99.80;;;;;;4986468;28;20086;-76
2023/02/28 01:15:03;;;;;;;20.70;7.72;;;-5.10;99.70;;;;;;4987504;28;20050;-78
2023/02/28 01:17:30;;;;;;;22.40;7.45;;;-5.10;100.00;;;;;;4988888;28;20054;-78
2023/02/28 01:19:56;;;;;;;26.83;9.20;;;-5.10;99.80;;;;;;4988373;28;20053;-77
2023/02/28 01:22:23;;;;;;;29.23;9.18;;;-5.10;99.90;;;;;;4987838;28;20442;-77
2023/02/28 01:24:50;;;;;;;35.58;9.77;;;-5.20;99.90;;;;;;4985605;28;20051;-78
2023/02/28 01:27:17;;;;;;;28.40;10.02;;;-5.20;99.90;;;;;;4986340;28;20089;-77
2023/02/28 01:29:44;;;;;;;31.50;11.88;;;-5.20;100.00;;;;;;4999711;28;20051;-77
2023/02/28 01:32:10;;;;;;;33.45;11.23;;;-5.20;100.00;;;;;;4985572;28;20058;-77
2023/02/28 01:34:37;;;;;;;36.65;9.77;;;-5.20;100.00;;;;;;4984568;28;20051;-78
2023/02/28 01:37:04;;;;;;;18.75;7.18;;;-5.20;100.00;;;;;;4986269;28;20057;-77
2023/02/28 01:39:31;;;;;;;26.52;8.55;;;-5.20;99.90;;;;;;4986008;28;20569;-77
2023/02/28 01:41:58;;;;;;;26.05;8.25;;;-5.20;100.00;;;;;;4986994;28;20064;-77
2023/02/28 01:45:02;;;;;;;23.35;8.20;;;-5.20;100.00;;;;;;4985623;28;20050;-77
2023/02/28 01:47:34;;;;;;;36.88;10.80;;;-5.30;99.80;;;;;;4987024;28;20496;-77
2023/02/28 01:50:04;;;;;;;67.20;22.10;;;-5.30;100.00;;;;;;4985159;28;20576;-77
2023/02/28 01:52:32;;;;;;;50.60;18.90;;;-5.30;100.00;;;;;;4985936;28;20058;-77
2023/02/28 01:55:00;;;;;;;24.35;8.65;;;-5.30;100.00;;;;;;4984455;28;20046;-77
2023/02/28 01:57:45;;;;;;;39.80;11.98;;;-5.30;100.00;;;;;;4985399;28;20483;-77
2023/02/28 02:00:16;;;;;;;;;;;-5.30;100.00;;;;;;4985791;28;20139;-77
2023/02/28 02:02:47;;;;;;;65.30;17.05;;;-5.30;100.00;;;;;;4984773;28;20676;-77
2023/02/28 02:05:18;;;;;;;40.22;13.43;;;-5.40;100.00;;;;;;4983818;28;20058;-78
2023/02/28 02:07:48;;;;;;;45.60;13.90;;;-5.40;99.90;;;;;;4986740;28;20598;-77
2023/02/28 02:10:21;;;;;;;40.28;12.77;;;-5.50;99.90;;;;;;4984486;28;20061;-78
2023/02/28 02:13:00;;;;;;;37.05;13.00;;;-5.50;100.00;;;;;;4987069;28;20058;-75
2023/02/28 02:15:56;;;;;;;40.17;12.50;;;-5.50;100.00;;;;;;4983062;28;20478;-75
2023/02/28 02:18:32;;;;;;;44.25;14.43;;;-5.50;100.00;;;;;;4985971;28;20092;-75
2023/02/28 02:21:10;;;;;;;32.17;11.60;;;-5.50;100.00;;;;;;4986287;28;20047;-78
2023/02/28 02:23:58;;;;;;;23.17;8.82;;;-5.50;100.00;;;;;;4984252;28;20399;-78
2023/02/28 02:26:55;;;;;;;18.27;6.78;;;-5.50;100.00;;;;;;4984594;28;20057;-77
2023/02/28 02:29:30;;;;;;;21.38;7.20;;;-5.50;100.00;;;;;;4981135;28;20055;-78
2023/02/28 02:32:16;;;;;;;16.63;6.65;;;-5.60;100.00;;;;;;4985412;28;20046;-76
2023/02/28 02:38:33;;;;;;;18.02;5.55;;;-5.60;100.00;;;;;;4990029;28;20041;-77
2023/02/28 02:41:24;;;;;;;15.93;6.32;;;-5.60;100.00;;;;;;4988482;28;20048;-77
2023/02/28 02:43:53;;;;;;;15.32;5.70;;;-5.60;100.00;;;;;;4991973;28;20050;-77
2023/02/28 02:46:31;;;;;;;17.48;4.90;;;-5.60;100.00;;;;;;4995024;28;20054;-77
2023/02/28 02:49:02;;;;;;;15.55;5.22;;;-5.60;100.00;;;;;;4993151;28;20754;-78
2023/02/28 02:51:32;;;;;;;15.65;5.57;;;-5.60;100.00;;;;;;4983054;28;20054;-77
2023/02/28 02:54:08;;;;;;;18.42;5.55;;;-5.60;100.00;;;;;;4990090;28;20065;-77
2023/02/28 02:56:40;;;;;;;26.33;5.47;;;-5.60;100.00;;;;;;4991862;28;20050;-78
2023/02/28 02:59:10;;;;;;;14.02;4.63;;;-5.70;100.00;;;;;;4991847;28;20442;-77
2023/02/28 03:01:38;;;;;;;13.63;5.18;;;-5.70;100.00;;;;;;4988831;28;20042;-77
2023/02/28 03:04:13;;;;;;;13.70;4.32;;;-5.70;100.00;;;;;;4977543;28;20058;-78
2023/02/28 03:06:40;;;;;;;19.92;4.38;;;-5.70;100.00;;;;;;4979624;28;20057;-78
2023/02/28 03:09:07;;;;;;;11.27;4.40;;;-5.70;100.00;;;;;;4995389;28;20056;-78
2023/02/28 03:11:36;;;;;;;9.55;3.70;;;-5.70;100.00;;;;;;4978846;28;20050;-77
2023/02/28 03:14:13;;;;;;;12.50;4.22;;;-5.80;100.00;;;;;;4991799;28;20054;-78
2023/02/28 03:16:58;;;;;;;15.52;4.40;;;-5.80;100.00;;;;;;4978282;28;20085;-78
2023/02/28 03:19:33;;;;;;;13.65;4.60;;;-5.80;100.00;;;;;;4992023;28;20054;-78
2023/02/28 03:22:09;;;;;;;11.50;4.50;;;-5.80;100.00;;;;;;4981436;28;20452;-78
2023/02/28 03:25:16;;;;;;;16.20;4.55;;;-5.80;100.00;;;;;;4989493;28;20061;-77
2023/02/28 03:28:01;;;;;;;12.15;4.40;;;-5.90;100.00;;;;;;4978881;28;20057;-78
2023/02/28 03:30:47;;;;;;;14.55;4.75;;;-5.90;100.00;;;;;;4979246;28;20054;-77
2023/02/28 03:33:40;;;;;;;9.55;3.75;;;-5.90;100.00;;;;;;4991565;28;20057;-77
2023/02/28 03:36:13;;;;;;;9.90;4.15;;;-6.00;100.00;;;;;;4993208;28;20042;-78
2023/02/28 03:39:03;;;;;;;12.35;5.10;;;-6.00;100.00;;;;;;4994588;28;20064;-78
2023/02/28 03:41:36;;;;;;;21.65;6.30;;;-6.00;100.00;;;;;;4980703;28;20057;-78
2023/02/28 03:44:10;;;;;;;12.68;5.50;;;-6.00;100.00;;;;;;4977188;28;20053;-77
2023/02/28 03:46:40;;;;;;;12.90;5.00;;;-6.00;100.00;;;;;;4989519;28;20054;-78
2023/02/28 03:49:22;;;;;;;22.83;4.68;;;-6.00;100.00;;;;;;4990964;28;20133;-77
2023/02/28 03:51:52;;;;;;;15.38;4.82;;;-6.10;100.00;;;;;;4991592;28;20050;-77
2023/02/28 03:54:27;;;;;;;12.15;5.07;;;-6.10;100.00;;;;;;4968549;28;20051;-77
2023/02/28 03:57:04;;;;;;;13.85;6.05;;;-6.10;100.00;;;;;;4979770;28;20054;-77
2023/02/28 03:59:37;;;;;;;19.23;5.95;;;-6.10;100.00;;;;;;4978678;28;20101;-78
2023/02/28 04:02:04;;;;;;;17.38;6.22;;;-6.10;100.00;;;;;;4992663;28;20041;-78
2023/02/28 04:04:31;;;;;;;14.60;5.30;;;-6.10;100.00;;;;;;4969571;28;20092;-78
2023/02/28 04:07:06;;;;;;;14.77;4.57;;;-6.20;100.00;;;;;;4981356;28;20784;-77
2023/02/28 04:09:32;;;;;;;10.38;3.55;;;-6.10;100.00;;;;;;4985991;28;20047;-77
2023/02/28 04:12:00;;;;;;;22.27;4.32;;;-6.20;100.00;;;;;;4977310;28;20112;-77
2023/02/28 04:14:26;;;;;;;10.60;4.30;;;-6.20;100.00;;;;;;4990870;28;20051;-78
2023/02/28 04:16:53;;;;;;;9.48;3.45;;;-6.20;100.00;;;;;;4994347;28;20059;-77
2023/02/28 04:19:20;;;;;;;17.83;4.25;;;-6.20;100.00;;;;;;4992160;28;20069;-78
2023/02/28 04:21:50;;;;;;;11.52;4.57;;;-6.20;100.00;;;;;;4988239;28;20054;-77
2023/02/28 04:24:20;;;;;;;13.02;5.05;;;-6.10;100.00;;;;;;4990333;28;20221;-77
2023/02/28 04:26:50;;;;;;;15.15;4.57;;;-6.20;100.00;;;;;;4975934;28;20062;-78
2023/02/28 04:29:26;;;;;;;10.25;4.65;;;-6.20;100.00;;;;;;4994891;28;20129;-76
2023/02/28 04:31:54;;;;;;;17.15;5.07;;;-6.20;100.00;;;;;;4978753;28;20784;-77
2023/02/28 04:34:23;;;;;;;15.70;5.28;;;-6.20;100.00;;;;;;4993128;28;20082;-77
2023/02/28 04:36:50;;;;;;;13.15;4.22;;;-6.30;100.00;;;;;;4992433;28;20049;-77
2023/02/28 04:39:37;;;;;;;18.92;4.97;;;-6.30;100.00;;;;;;4989771;28;20057;-77
2023/02/28 04:42:04;;;;;;;16.05;4.40;;;-6.30;100.00;;;;;;4976977;28;20050;-77
2023/02/28 04:44:31;;;;;;;13.32;5.30;;;-6.30;100.00;;;;;;4992001;28;20054;-77
2023/02/28 04:46:58;;;;;;;13.25;5.43;;;-6.40;100.00;;;;;;4982401;28;20053;-77
2023/02/28 04:49:25;;;;;;;12.70;4.80;;;-6.30;100.00;;;;;;4976023;28;20137;-77
2023/02/28 04:51:52;;;;;;;14.43;5.30;;;-6.40;100.00;;;;;;4984953;28;20141;-77
2023/02/28 04:54:20;;;;;;;11.27;3.95;;;-6.40;100.00;;;;;;4980497;28;20058;-77
2023/02/28 04:56:49;;;;;;;18.40;4.07;;;-6.40;100.00;;;;;;4983478;28;20125;-77
2023/02/28 04:59:16;;;;;;;12.65;4.47;;;-6.40;100.00;;;;;;4982045;28;20124;-76
2023/02/28 05:01:47;;;;;;;13.40;3.83;;;-6.40;100.00;;;;;;4996094;28;20050;-76
2023/02/28 05:04:14;;;;;;;12.25;4.68;;;-6.40;100.00;;;;;;4983606;28;20144;-77
2023/02/28 05:06:41;;;;;;;13.60;4.47;;;-6.40;100.00;;;;;;4991386;28;20057;-76
2023/02/28 05:09:08;;;;;;;9.15;4.13;;;-6.40;100.00;;;;;;5000225;28;20188;-76
2023/02/28 05:11:35;;;;;;;13.23;4.18;;;-6.40;100.00;;;;;;4993996;28;20625;-76
2023/02/28 05:14:04;;;;;;;11.70;4.10;;;-6.40;100.00;;;;;;4994028;28;20124;-76
2023/02/28 05:16:31;;;;;;;8.80;4.13;;;-6.40;100.00;;;;;;4993198;28;20047;-76
2023/02/28 05:18:59;;;;;;;17.55;5.25;;;-6.40;100.00;;;;;;4994118;28;20074;-77
2023/02/28 05:21:31;;;;;;;11.57;4.60;;;-6.40;100.00;;;;;;4984008;28;20100;-76
2023/02/28 05:24:00;;;;;;;9.27;3.67;;;-6.40;100.00;;;;;;4982412;28;20043;-77
2023/02/28 05:26:27;;;;;;;14.23;3.60;;;-6.40;100.00;;;;;;4994938;28;20586;-76
2023/02/28 05:28:55;;;;;;;9.88;4.30;;;-6.40;100.00;;;;;;4995366;28;20057;-76
2023/02/28 05:31:23;;;;;;;16.23;4.68;;;-6.40;100.00;;;;;;4994999;28;20062;-76
2023/02/28 05:33:51;;;;;;;10.88;4.15;;;-6.50;100.00;;;;;;4982607;28;20052;-76
2023/02/28 05:36:18;;;;;;;30.92;4.15;;;-6.50;100.00;;;;;;4996389;28;20042;-76
2023/02/28 05:38:49;;;;;;;16.10;4.45;;;-6.40;100.00;;;;;;4991564;28;20072;-77
2023/02/28 05:41:17;;;;;;;11.48;4.00;;;-6.50;100.00;;;;;;4979385;28;20058;-76
2023/02/28 05:43:44;;;;;;;8.38;3.53;;;-6.50;100.00;;;;;;4978899;28;20057;-76
2023/02/28 05:46:12;;;;;;;10.70;4.13;;;-6.50;100.00;;;;;;4991319;28;20519;-76
2023/02/28 05:48:43;;;;;;;16.42;4.90;;;-6.40;100.00;;;;;;4981501;28;20144;-76
2023/02/28 05:51:09;;;;;;;15.55;4.60;;;-6.40;100.00;;;;;;4994844;28;20054;-76
2023/02/28 05:53:37;;;;;;;18.67;3.55;;;-6.50;100.00;;;;;;4996641;28;20058;-77
2023/02/28 05:56:04;;;;;;;12.05;4.53;;;-6.50;100.00;;;;;;4989386;28;20415;-77
2023/02/28 05:58:32;;;;;;;17.20;4.72;;;-6.50;100.00;;;;;;4988392;28;20760;-77
2023/02/28 06:00:59;;;;;;;31.92;10.90;;;-6.50;100.00;;;;;;4986538;28;20125;-78
2023/02/28 06:03:27;;;;;;;24.83;8.18;;;-6.50;100.00;;;;;;4979526;28;20047;-80
2023/02/28 06:05:54;;;;;;;15.50;6.30;;;-6.50;100.00;;;;;;4985588;28;20058;-87
2023/02/28 06:08:21;;;;;;;17.13;7.05;;;-6.50;100.00;;;;;;4981323;28;20062;-80
2023/02/28 06:10:48;;;;;;;20.75;8.07;;;-6.50;100.00;;;;;;4982068;28;20394;-79
2023/02/28 06:13:15;;;;;;;23.17;9.27;;;-6.50;100.00;;;;;;4993686;28;20060;-79
2023/02/28 06:15:42;;;;;;;24.52;8.57;;;-6.50;100.00;;;;;;4979669;28;20128;-77
2023/02/28 06:18:08;;;;;;;22.75;7.80;;;-6.40;100.00;;;;;;4980942;28;20046;-78
2023/02/28 06:20:36;;;;;;;17.23;6.28;;;-6.40;100.00;;;;;;4996032;28;20415;-82
2023/02/28 06:23:03;;;;;;;9.93;4.28;;;-6.40;100.00;;;;;;4983582;28;20120;-85
2023/02/28 06:25:29;;;;;;;8.85;4.53;;;-6.30;100.00;;;;;;4991193;28;20059;-78
2023/02/28 06:27:56;;;;;;;13.65;4.35;;;-6.30;100.00;;;;;;4982491;28;20050;-80
2023/02/28 06:30:26;;;;;;;15.90;4.60;;;-6.30;100.00;;;;;;4982800;28;20566;-85
2023/02/28 06:32:54;;;;;;;19.35;4.47;;;-6.20;100.00;;;;;;4983947;28;20050;-83
2023/02/28 06:35:21;;;;;;;12.38;4.35;;;-6.20;100.00;;;;;;4990327;28;20708;-85
2023/02/28 06:37:48;;;;;;;14.68;5.53;;;-6.20;100.00;;;;;;4993067;28;20872;-85
2023/02/28 06:40:15;;;;;;;16.60;6.22;;;-6.10;100.00;;;;;;4984501;28;20707;-87
2023/02/28 06:42:42;;;;;;;12.85;5.40;;;-6.10;100.00;;;;;;4983214;28;20042;-81
2023/02/28 06:45:11;;;;;;;12.45;5.70;;;-6.00;100.00;;;;;;4978200;28;20049;-79
2023/02/28 06:47:39;;;;;;;10.43;4.78;;;-6.00;100.00;;;;;;4992803;28;20046;-79
2023/02/28 06:50:08;;;;;;;14.82;6.18;;;-5.90;100.00;;;;;;4992495;28;20132;-79
2023/02/28 06:52:38;;;;;;;27.98;7.97;;;-5.90;100.00;;;;;;4982984;28;20547;-79
2023/02/28 06:55:06;;;;;;;19.42;8.15;;;-5.80;100.00;;;;;;4979868;28;20607;-79
2023/02/28 06:57:34;;;;;;;43.60;14.32;;;-5.70;100.00;;;;;;4991506;28;20125;-79
2023/02/28 07:00:07;;;;;;;43.35;17.27;;;-5.60;100.00;;;;;;4993767;28;20053;-78
2023/02/28 07:02:35;;;;;;;57.92;21.88;;;-5.50;100.00;;;;;;4983096;28;20085;-78
2023/02/28 07:05:03;;;;;;;28.35;11.40;;;-5.30;100.00;;;;;;4972129;28;20061;-78
2023/02/28 07:07:30;;;;;;;28.55;9.80;;;-5.20;100.00;;;;;;4984873;28;20501;-78
2023/02/28 07:09:57;;;;;;;23.20;7.00;;;-5.00;100.00;;;;;;4985064;28;20943;-77
2023/02/28 07:12:24;;;;;;;14.75;5.57;;;-4.80;100.00;;;;;;4979877;28;20864;-77
2023/02/28 07:14:51;;;;;;;11.00;4.70;;;-4.50;100.00;;;;;;4977773;28;20058;-76
2023/02/28 07:17:20;;;;;;;36.00;8.90;;;-4.20;100.00;;;;;;4992913;28;20109;-78
2023/02/28 07:19:46;;;;;;;27.52;10.48;;;-3.90;100.00;;;;;;4980725;28;20513;-78
2023/02/28 07:22:13;;;;;;;31.30;11.90;;;-3.60;99.70;;;;;;4977270;28;20042;-77
2023/02/28 07:24:41;;;;;;;32.28;13.38;;;-3.40;98.30;;;;;;4972136;28;20043;-77
2023/02/28 07:27:08;;;;;;;29.77;11.77;;;-3.30;97.30;;;;;;4967804;28;20079;-78
2023/02/28 07:29:35;;;;;;;24.23;8.88;;;-3.30;97.20;;;;;;4972676;28;20074;-78
2023/02/28 07:32:02;;;;;;;39.10;9.98;;;-3.40;97.20;;;;;;4982246;28;20053;-78
2023/02/28 07:34:29;;;;;;;19.92;9.23;;;-3.40;97.30;;;;;;4974258;28;20089;-77
2023/02/28 07:36:56;;;;;;;31.45;10.93;;;-3.40;97.70;;;;;;4974268;28;20754;-77
2023/02/28 07:39:23;;;;;;;27.30;11.27;;;-3.30;98.40;;;;;;4961845;28;20061;-77
2023/02/28 07:41:49;;;;;;;28.02;10.27;;;-3.20;98.70;;;;;;4979490;28;20046;-78
2023/02/28 07:44:16;;;;;;;27.80;8.55;;;-3.00;99.10;;;;;;4978698;28;20058;-77
2023/02/28 07:46:43;;;;;;;22.77;8.45;;;-2.70;97.90;;;;;;4973755;28;20822;-78
2023/02/28 07:49:10;;;;;;;20.70;8.93;;;-2.40;100.00;;;;;;4983044;28;20073;-78
2023/02/28 07:51:37;;;;;;;17.15;8.25;;;-1.80;98.00;;;;;;4990002;28;20525;-77
2023/02/28 07:54:04;;;;;;;19.70;6.80;;;-1.40;95.50;;;;;;4993607;28;20080;-80
2023/02/28 07:56:31;;;;;;;14.80;6.90;;;-1.10;92.40;;;;;;4980884;28;20068;-77
2023/02/28 07:58:58;;;;;;;14.90;6.82;;;-1.20;92.20;;;;;;4979095;28;20057;-76
2023/02/28 08:01:25;;;;;;;16.25;6.65;;;-1.30;92.60;;;;;;4994025;28;20525;-75
2023/02/28 08:03:53;;;;;;;16.70;6.75;;;-1.50;94.30;;;;;;4990544;28;20137;-76
2023/02/28 08:06:23;;;;;;;14.88;7.85;;;-1.40;96.10;;;;;;4989441;28;20058;-77
2023/02/28 08:08:50;;;;;;;23.38;7.60;;;-1.00;95.10;;;;;;4990036;28;20050;-74
2023/02/28 08:14:32;;;;;;;12.45;6.07;;;-0.20;93.00;;;;;;4955646;28;20170;-74
2023/02/28 08:16:59;;;;;;;11.35;6.32;;;0.20;89.10;;;;;;4956581;28;20083;-74
2023/02/28 08:19:26;;;;;;;16.52;7.15;;;0.20;89.10;;;;;;4956142;28;20055;-74
2023/02/28 08:21:53;;;;;;;19.90;6.93;;;0.10;91.10;;;;;;4956221;28;20047;-74
2023/02/28 08:24:20;;;;;;;15.40;5.90;;;0.70;91.40;;;;;;4958156;28;21149;-74
2023/02/28 08:26:47;;;;;;;20.15;8.00;;;1.70;89.10;;;;;;4959483;28;20066;-75
2023/02/28 08:29:13;;;;;;;18.75;8.93;;;2.90;84.90;;;;;;4957269;28;20059;-74
2023/02/28 08:31:41;;;;;;;17.50;7.32;;;4.10;82.40;;;;;;4954278;28;20055;-75
2023/02/28 08:34:10;;;;;;;14.57;7.90;;;5.20;74.50;;;;;;4958242;28;20130;-74
2023/02/28 08:36:38;;;;;;;15.27;8.95;;;5.00;73.70;;;;;;4967796;28;20056;-75
2023/02/28 08:39:06;;;;;;;15.63;8.13;;;5.00;75.40;;;;;;4954094;28;20063;-75
2023/02/28 08:41:34;;;;;;;14.95;6.80;;;4.90;73.10;;;;;;4964604;28;20183;-75
2023/02/28 08:44:01;;;;;;;19.05;6.78;;;5.10;72.20;;;;;;4965524;28;20047;-74
2023/02/28 08:46:28;;;;;;;17.02;6.60;;;4.80;73.30;;;;;;4962875;28;20051;-75
2023/02/28 08:48:59;;;;;;;15.90;6.38;;;4.40;73.10;;;;;;4965884;28;20069;-74
2023/02/28 08:51:27;;;;;;;7.80;5.03;;;3.90;72.90;;;;;;4952611;28;20062;-75
2023/02/28 08:53:57;;;;;;;16.02;5.78;;;3.40;74.50;;;;;;4956920;28;20868;-75
2023/02/28 08:56:24;;;;;;;12.52;5.03;;;3.10;76.00;;;;;;4975742;28;20051;-75
2023/02/28 08:58:51;;;;;;;11.07;4.68;;;2.90;79.00;;;;;;4953228;28;20580;-75
2023/02/28 09:01:26;;;;;;;15.68;5.30;;;3.10;77.60;;;;;;4960643;28;20047;-75
2023/02/28 09:06:53;;;;;;;17.85;7.22;;;3.10;79.10;;;;;;4962122;28;20317;-76
2023/02/28 09:09:20;;;;;;;14.40;6.75;;;3.10;78.40;;;;;;4950871;28;20547;-76
2023/02/28 09:11:47;;;;;;;14.95;6.75;;;3.00;78.30;;;;;;4958107;28;20113;-76
2023/02/28 09:14:14;;;;;;;12.02;6.10;;;3.10;76.70;;;;;;4954670;28;20092;-76
2023/02/28 09:16:40;;;;;;;9.98;4.55;;;2.90;75.20;;;;;;4957545;28;20054;-76
2023/02/28 09:19:11;;;;;;;13.00;5.60;;;2.90;75.10;;;;;;4958686;28;20054;-75
2023/02/28 09:21:38;;;;;;;15.25;6.18;;;3.00;76.80;;;;;;4960210;28;20138;-76
2023/02/28 09:24:05;;;;;;;21.30;7.57;;;3.30;75.20;;;;;;4952283;28;20571;-76
2023/02/28 09:26:33;;;;;;;18.60;7.05;;;3.90;75.80;;;;;;4959498;28;20572;-79
2023/02/28 09:29:14;;;;;;;14.45;5.43;;;5.40;71.90;;;;;;4981165;28;20614;-79
2023/02/28 09:31:41;;;;;;;12.93;5.15;;;6.00;68.40;;;;;;4983331;28;20134;-81
2023/02/28 09:34:08;;;;;;;13.07;4.05;;;6.60;68.20;;;;;;4965612;28;21197;-80
2023/02/28 09:36:37;;;;;;;9.48;3.55;;;7.30;65.60;;;;;;4982458;28;20058;-80
2023/02/28 09:39:13;;;;;;;15.15;5.15;;;7.20;63.50;;;;;;4967093;28;20046;-80
2023/02/28 09:41:49;;;;;;;12.50;3.78;;;7.50;62.00;;;;;;4969937;28;20055;-80
2023/02/28 09:47:57;;;;;;;11.35;3.00;;;8.80;58.00;;;;;;4982952;28;20062;-75
2023/02/28 09:50:44;;;;;;;5.68;2.42;;;9.10;56.80;;;;;;4980295;28;20049;-75
2023/02/28 09:53:22;;;;;;;8.25;2.83;;;9.00;58.30;;;;;;4974526;28;20053;-76
2023/02/28 09:55:54;;;;;;;6.13;2.53;;;9.80;55.30;;;;;;4997262;28;20061;-76
2023/02/28 09:58:54;;;;;;;7.97;2.78;;;9.80;57.30;;;;;;4966284;28;20090;-75
2023/02/28 10:01:49;;;;;;;8.32;2.42;;;9.60;55.10;;;;;;4981706;28;20057;-76
2023/02/28 10:04:52;;;;;;;7.50;3.50;;;8.50;56.80;;;;;;4970299;28;20050;-76
2023/02/28 10:07:45;;;;;;;4.00;2.05;;;8.60;59.40;;;;;;4975384;28;20053;-76
2023/02/28 10:10:38;;;;;;;4.10;2.58;;;10.40;56.90;;;;;;4970562;28;20049;-78
2023/02/28 10:13:16;;;;;;;9.65;2.42;;;12.30;51.80;;;;;;4977644;28;20070;-76
2023/02/28 10:15:47;;;;;;;6.80;2.70;;;12.50;51.60;;;;;;4972673;28;20150;-77
2023/02/28 10:18:20;;;;;;;9.55;2.88;;;13.00;49.60;;;;;;4982644;28;20058;-76
2023/02/28 10:20:49;;;;;;;7.47;2.75;;;12.00;50.90;;;;;;4979447;28;20058;-76
2023/02/28 10:23:25;;;;;;;8.57;2.40;;;11.90;51.00;;;;;;4971361;28;20056;-75
2023/02/28 10:26:01;;;;;;;5.80;2.53;;;12.00;49.80;;;;;;4979134;28;20431;-77
2023/02/28 10:28:30;;;;;;;5.95;2.42;;;10.60;51.40;;;;;;4984086;28;20150;-78
2023/02/28 10:30:58;;;;;;;9.20;2.13;;;9.60;53.80;;;;;;4983123;28;20514;-76
2023/02/28 10:33:34;;;;;;;4.57;2.17;;;9.80;53.80;;;;;;4965758;28;20488;-74
2023/02/28 10:36:03;;;;;;;7.93;2.38;;;10.20;54.60;;;;;;4972836;28;20485;-76
2023/02/28 10:38:35;;;;;;;6.97;2.00;;;10.90;54.10;;;;;;4971887;28;20053;-76
2023/02/28 10:41:12;;;;;;;5.82;2.40;;;11.50;51.90;;;;;;4974541;28;20050;-76
2023/02/28 10:43:41;;;;;;;7.65;2.28;;;11.30;53.20;;;;;;4973802;28;20191;-78
2023/02/28 10:46:10;;;;;;;9.48;3.55;;;11.80;52.70;;;;;;4979469;28;20419;-77
2023/02/28 10:49:04;;;;;;;6.88;2.53;;;12.60;50.10;;;;;;4986159;22;20130;-79
2023/02/28 10:51:37;;;;;;;7.28;2.17;;;13.90;48.50;;;;;;4987037;28;20042;-80
2023/02/28 10:54:05;;;;;;;6.18;2.85;;;13.50;49.20;;;;;;4998651;28;20052;-80
2023/02/28 10:56:32;;;;;;;5.00;2.00;;;15.00;47.30;;;;;;5001376;28;20058;-80
2023/02/28 10:59:03;;;;;;;9.38;2.30;;;16.40;45.10;;;;;;4981133;28;20065;-79
2023/02/28 11:01:39;;;;;;;4.72;2.00;;;17.00;44.40;;;;;;4995602;28;20054;-80
2023/02/28 11:04:29;;;;;;;5.70;1.40;;;18.20;42.70;;;;;;4987175;28;20049;-80
2023/02/28 11:07:02;;;;;;;6.45;1.73;;;18.60;39.20;;;;;;5001277;28;20485;-79
2023/02/28 11:09:38;;;;;;;3.70;1.45;;;17.30;39.70;;;;;;4991592;28;20414;-80
2023/02/28 11:12:25;;;;;;;3.80;1.40;;;15.50;42.00;;;;;;4992811;28;20073;-79
2023/02/28 11:15:01;;;;;;;8.02;2.53;;;14.60;41.70;;;;;;4995718;28;20060;-80
2023/02/28 11:17:31;;;;;;;5.53;1.70;;;14.00;42.70;;;;;;4983072;28;20050;-81
2023/02/28 11:20:03;;;;;;;13.73;2.35;;;13.90;45.10;;;;;;4980153;28;20080;-79
2023/02/28 11:22:35;;;;;;;2.95;1.83;;;14.80;44.60;;;;;;4981783;28;20104;-80
2023/02/28 11:25:19;;;;;;;17.85;2.10;;;14.80;42.90;;;;;;5002510;28;20065;-80
2023/02/28 11:27:52;;;;;;;8.85;2.42;;;15.10;43.50;;;;;;4977615;28;20044;-79
2023/02/28 11:30:35;;;;;;;17.80;2.60;;;14.40;42.60;;;;;;4998916;28;20056;-80
2023/02/28 11:33:24;;;;;;;6.38;1.70;;;13.40;44.40;;;;;;4976273;28;20156;-78
2023/02/28 11:35:53;;;;;;;3.58;1.60;;;14.10;44.70;;;;;;4991063;28;20058;-79
2023/02/28 11:38:19;;;;;;;3.95;1.90;;;14.30;43.40;;;;;;5004527;28;20077;-79
2023/02/28 11:40:57;;;;;;;4.85;2.00;;;15.50;43.30;;;;;;4988082;28;20049;-80
2023/02/28 11:43:47;;;;;;;8.05;2.00;;;15.80;42.50;;;;;;4981451;28;20605;-79
2023/02/28 11:46:35;;;;;;;16.63;1.85;;;16.60;39.60;;;;;;5002976;28;20049;-80
2023/02/28 11:49:17;;;;;;;8.60;2.20;;;16.60;38.90;;;;;;4976243;28;20050;-78
2023/02/28 11:51:44;;;;;;;20.58;1.98;;;17.10;39.20;;;;;;4985748;28;20061;-79
2023/02/28 11:54:27;;;;;;;9.00;1.50;;;17.80;39.20;;;;;;4977621;28;20467;-79
2023/02/28 11:57:03;;;;;;;5.68;1.92;;;17.90;39.60;;;;;;4967666;28;20058;-79
2023/02/28 12:00:00;;;;;;;12.20;2.00;;;18.70;38.00;;;;;;4992138;28;20054;-79
2023/02/28 12:02:44;;;;;;;5.20;1.60;;;18.10;36.80;;;;;;4961669;28;20082;-77
2023/02/28 12:05:35;;;;;;;9.02;2.10;;;18.60;36.80;;;;;;4996012;28;20046;-78
2023/02/28 12:08:38;;;;;;;7.40;1.33;;;19.00;36.30;;;;;;4995649;28;20088;-76
2023/02/28 12:11:23;;;;;;;4.28;2.10;;;19.50;36.40;;;;;;5003527;28;20056;-78
2023/02/28 12:14:27;;;;;;;8.00;2.53;;;18.90;37.70;;;;;;4985362;28;20061;-78
2023/02/28 12:17:00;;;;;;;7.05;1.83;;;18.60;37.80;;;;;;4973611;28;20157;-76
2023/02/28 12:19:42;;;;;;;3.80;1.95;;;17.50;37.90;;;;;;4981914;28;20042;-76
2023/02/28 12:22:52;;;;;;;8.38;2.00;;;18.60;39.40;;;;;;4981397;28;20050;-76
2023/02/28 12:25:40;;;;;;;11.15;2.30;;;20.70;37.90;;;;;;4927254;28;20523;-76
2023/02/28 12:28:12;;;;;;;11.38;2.35;;;21.40;35.70;;;;;;4993011;28;20046;-77
2023/02/28 12:31:11;;;;;;;7.82;2.20;;;20.50;37.30;;;;;;4996045;28;20054;-79
2023/02/28 12:33:47;;;;;;;2.92;1.58;;;21.10;35.10;;;;;;4957493;28;20046;-76
2023/02/28 12:36:21;;;;;;;3.28;1.85;;;20.20;37.00;;;;;;4983006;28;20060;-77
2023/02/28 12:39:00;;;;;;;10.07;2.88;;;19.40;36.10;;;;;;5001857;28;20045;-77
2023/02/28 12:41:34;;;;;;;11.32;2.22;;;18.60;39.70;;;;;;4996128;28;20046;-77
2023/02/28 12:44:08;;;;;;;4.10;1.70;;;19.80;36.90;;;;;;4988356;28;21108;-77
2023/02/28 12:46:41;;;;;;;5.57;1.42;;;18.00;36.20;;;;;;4980073;28;20038;-77
2023/02/28 12:49:14;;;;;;;4.07;1.15;;;19.10;38.20;;;;;;4995986;28;20053;-77
2023/02/28 12:51:41;;;;;;;8.63;1.90;;;20.40;35.70;;;;;;4984765;28;20049;-73
2023/02/28 12:54:13;;;;;;;8.00;1.60;;;20.90;34.50;;;;;;4993527;28;20058;-74
2023/02/28 13:09:57;;;;;;;8.77;1.83;;;20.70;34.40;;;;;;5054272;28;20473;-78
2023/02/28 13:12:24;;;;;;;4.97;1.60;;;20.90;33.70;;;;;;5038065;28;20041;-76
2023/02/28 13:15:12;;;;;;;5.40;1.40;;;21.00;32.80;;;;;;5041768;28;20372;-76
2023/02/28 13:17:41;;;;;;;6.43;1.50;;;21.30;32.80;;;;;;5040202;28;20119;-76
2023/02/28 13:20:18;;;;;;;8.00;1.70;;;20.10;33.10;;;;;;5043421;28;20052;-76
2023/02/28 13:22:48;;;;;;;4.30;1.60;;;20.30;34.50;;;;;;5038348;28;20045;-76
2023/02/28 13:25:21;;;;;;;3.42;1.60;;;20.20;33.40;;;;;;5042010;28;20792;-76
2023/02/28 13:42:22;;;;;;;13.13;2.70;;;18.80;34.60;;;;;;5117067;27;20410;-76